createdAt,value
2017-11-04T00:00:30.922Z,0
2017-11-04T00:01:11.585Z,0
2017-11-04T00:01:51.808Z,0
2017-11-04T00:02:32.470Z,0
2017-11-04T00:04:51.995Z,0
2017-11-04T00:05:32.481Z,0
2017-11-04T00:06:12.856Z,0
2017-11-04T00:06:53.342Z,0
2017-11-04T00:07:33.697Z,0
2017-11-04T00:08:14.177Z,0
2017-11-04T00:08:54.554Z,0
2017-11-04T00:09:34.935Z,0
2017-11-04T00:10:15.368Z,0
2017-11-04T00:10:55.739Z,0
2017-11-04T00:11:36.129Z,0
2017-11-04T00:12:16.551Z,0
2017-11-04T00:12:56.927Z,0
2017-11-04T00:13:37.431Z,0
2017-11-04T00:14:17.724Z,0
2017-11-04T00:14:58.168Z,0
2017-11-04T00:15:38.610Z,0
2017-11-04T00:16:18.983Z,0
2017-11-04T00:16:59.450Z,0
2017-11-04T00:17:39.794Z,0
2017-11-04T00:18:20.206Z,0
2017-11-04T00:19:00.608Z,0
2017-11-04T00:19:41.045Z,0
2017-11-04T00:20:21.415Z,0
2017-11-04T00:21:01.931Z,0
2017-11-04T00:21:42.370Z,0
2017-11-04T00:22:22.900Z,0
2017-11-04T00:23:03.284Z,0
2017-11-04T00:23:43.689Z,0
2017-11-04T00:24:24.156Z,0
2017-11-04T00:25:04.517Z,0
2017-11-04T00:25:44.901Z,0
2017-11-04T00:26:25.314Z,0
2017-11-04T00:27:05.763Z,0
2017-11-04T00:27:46.126Z,0
2017-11-04T00:28:26.564Z,0
2017-11-04T00:29:07.013Z,0
2017-11-04T00:29:47.411Z,0
2017-11-04T00:30:27.967Z,0
2017-11-04T00:31:08.372Z,0
2017-11-04T00:31:48.767Z,0
2017-11-04T00:32:29.155Z,0
2017-11-04T00:33:09.647Z,0
2017-11-04T00:33:50.111Z,0
2017-11-04T00:34:30.639Z,0
2017-11-04T00:35:11.037Z,0
2017-11-04T00:35:51.473Z,0
2017-11-04T00:36:31.864Z,0
2017-11-04T00:37:12.294Z,0
2017-11-04T00:37:52.825Z,0
2017-11-04T00:38:33.186Z,0
2017-11-04T00:39:13.696Z,0
2017-11-04T00:39:54.100Z,0
2017-11-04T00:40:34.494Z,0
2017-11-04T00:41:14.914Z,0
2017-11-04T00:41:55.233Z,0
2017-11-04T00:42:35.648Z,0
2017-11-04T00:43:16.084Z,0
2017-11-04T00:43:56.471Z,0
2017-11-04T00:44:36.955Z,0
2017-11-04T00:45:17.436Z,0
2017-11-04T00:45:57.767Z,0
2017-11-04T00:46:38.289Z,0
2017-11-04T00:47:18.732Z,0
2017-11-04T00:47:59.198Z,0
2017-11-04T00:48:39.683Z,0
2017-11-04T00:49:20.056Z,0
2017-11-04T00:50:00.546Z,0
2017-11-04T00:50:40.973Z,0
2017-11-04T00:51:21.350Z,0
2017-11-04T00:52:01.801Z,0
2017-11-04T00:52:42.186Z,0
2017-11-04T00:53:22.622Z,0
2017-11-04T00:54:03.035Z,0
2017-11-04T00:54:43.395Z,0
2017-11-04T00:55:23.822Z,0
2017-11-04T00:56:04.267Z,0
2017-11-04T00:56:44.612Z,0
2017-11-04T00:57:24.982Z,0
2017-11-04T00:58:05.363Z,0
2017-11-04T00:58:45.810Z,0
2017-11-04T00:59:26.309Z,0
2017-11-04T01:00:06.688Z,0
2017-11-04T01:00:47.041Z,0
2017-11-04T01:01:27.482Z,0
2017-11-04T01:02:07.896Z,0
2017-11-04T01:02:48.235Z,0
2017-11-04T01:03:28.622Z,0
2017-11-04T01:04:09.075Z,0
2017-11-04T01:04:49.499Z,0
2017-11-04T01:05:29.944Z,0
2017-11-04T01:06:10.404Z,0
2017-11-04T01:06:50.824Z,0
2017-11-04T01:07:31.236Z,0
2017-11-04T01:08:11.616Z,0
2017-11-04T01:08:52.021Z,0
2017-11-04T01:09:32.449Z,0
2017-11-04T01:10:12.873Z,0
2017-11-04T01:10:53.262Z,0
2017-11-04T01:11:33.694Z,0
2017-11-04T01:12:14.130Z,0
2017-11-04T01:12:54.555Z,0
2017-11-04T01:13:35.008Z,0
2017-11-04T01:14:15.384Z,0
2017-11-04T01:14:55.809Z,0
2017-11-04T01:15:36.239Z,0
2017-11-04T01:16:16.625Z,0
2017-11-04T01:16:57.041Z,0
2017-11-04T01:17:37.451Z,0
2017-11-04T01:18:17.831Z,0
2017-11-04T01:18:58.202Z,0
2017-11-04T01:19:38.586Z,0
2017-11-04T01:20:19.078Z,0
2017-11-04T01:20:59.426Z,0
2017-11-04T01:21:39.856Z,0
2017-11-04T01:22:20.338Z,0
2017-11-04T01:23:00.670Z,0
2017-11-04T01:23:41.102Z,0
2017-11-04T01:24:21.509Z,0
2017-11-04T01:25:01.943Z,0
2017-11-04T01:25:42.317Z,0
2017-11-04T01:26:22.712Z,0
2017-11-04T01:27:03.087Z,0
2017-11-04T01:27:43.503Z,0
2017-11-04T01:28:23.981Z,0
2017-11-04T01:29:04.315Z,0
2017-11-04T01:29:44.691Z,0
2017-11-04T01:30:25.106Z,0
2017-11-04T01:31:05.612Z,0
2017-11-04T01:31:45.999Z,0
2017-11-04T01:32:26.492Z,0
2017-11-04T01:33:06.896Z,0
2017-11-04T01:33:47.268Z,0
2017-11-04T01:34:27.736Z,0
2017-11-04T01:35:08.082Z,0
2017-11-04T01:35:48.496Z,0
2017-11-04T01:36:28.942Z,0
2017-11-04T01:37:09.325Z,0
2017-11-04T01:37:49.777Z,0
2017-11-04T01:38:30.199Z,0
2017-11-04T01:39:10.607Z,0
2017-11-04T01:39:51.041Z,0
2017-11-04T01:40:31.490Z,0
2017-11-04T01:41:11.968Z,0
2017-11-04T01:41:52.305Z,0
2017-11-04T01:42:32.690Z,0
2017-11-04T01:43:13.293Z,0
2017-11-04T01:43:53.661Z,0
2017-11-04T01:44:34.139Z,0
2017-11-04T01:45:14.548Z,0
2017-11-04T01:45:54.917Z,0
2017-11-04T01:46:35.356Z,0
2017-11-04T01:47:15.792Z,0
2017-11-04T01:47:56.250Z,0
2017-11-04T01:48:36.599Z,0
2017-11-04T01:49:17.042Z,0
2017-11-04T01:49:57.562Z,0
2017-11-04T01:50:37.905Z,0
2017-11-04T01:51:18.294Z,0
2017-11-04T01:51:58.712Z,0
2017-11-04T01:52:39.073Z,0
2017-11-04T01:53:19.506Z,0
2017-11-04T01:53:59.943Z,0
2017-11-04T01:54:40.314Z,0
2017-11-04T01:55:20.747Z,0
2017-11-04T01:56:01.170Z,0
2017-11-04T01:56:41.551Z,0
2017-11-04T01:57:21.893Z,0
2017-11-04T01:58:02.348Z,0
2017-11-04T01:58:42.711Z,0
2017-11-04T01:59:23.067Z,0
2017-11-04T02:00:03.516Z,0
2017-11-04T02:00:43.918Z,0
2017-11-04T02:01:24.284Z,0
2017-11-04T02:02:04.734Z,0
2017-11-04T02:02:45.223Z,0
2017-11-04T02:03:25.606Z,0
2017-11-04T02:04:06.028Z,0
2017-11-04T02:04:46.446Z,0
2017-11-04T02:05:26.874Z,0
2017-11-04T02:06:07.334Z,0
2017-11-04T02:06:47.790Z,0
2017-11-04T02:07:28.207Z,0
2017-11-04T02:08:08.611Z,0
2017-11-04T02:08:49.084Z,0
2017-11-04T02:09:29.614Z,0
2017-11-04T02:10:09.982Z,0
2017-11-04T02:10:50.452Z,0
2017-11-04T02:11:30.853Z,0
2017-11-04T02:12:11.293Z,0
2017-11-04T02:12:51.727Z,0
2017-11-04T02:13:32.120Z,0
2017-11-04T02:14:12.519Z,0
2017-11-04T02:14:52.945Z,0
2017-11-04T02:15:33.380Z,0
2017-11-04T02:16:13.834Z,0
2017-11-04T02:16:54.312Z,0
2017-11-04T02:17:34.751Z,0
2017-11-04T02:18:15.273Z,0
2017-11-04T02:18:55.654Z,0
2017-11-04T02:19:36.010Z,0
2017-11-04T02:20:16.402Z,0
2017-11-04T02:20:56.951Z,0
2017-11-04T02:21:37.445Z,0
2017-11-04T02:22:17.876Z,0
2017-11-04T02:22:58.239Z,0
2017-11-04T02:23:38.742Z,0
2017-11-04T02:24:19.092Z,0
2017-11-04T02:24:59.595Z,0
2017-11-04T02:25:40.099Z,0
2017-11-04T02:26:20.447Z,0
2017-11-04T02:27:00.891Z,0
2017-11-04T02:27:41.336Z,0
2017-11-04T02:28:21.727Z,0
2017-11-04T02:29:02.242Z,0
2017-11-04T02:29:42.688Z,0
2017-11-04T02:30:23.067Z,0
2017-11-04T02:31:03.520Z,0
2017-11-04T02:31:43.906Z,0
2017-11-04T02:32:24.389Z,0
2017-11-04T02:33:04.735Z,0
2017-11-04T02:33:45.127Z,0
2017-11-04T02:34:25.545Z,0
2017-11-04T02:35:06.052Z,0
2017-11-04T02:35:46.536Z,0
2017-11-04T02:36:26.923Z,0
2017-11-04T02:37:07.364Z,0
2017-11-04T02:37:47.802Z,0
2017-11-04T02:38:28.169Z,0
2017-11-04T02:39:08.630Z,0
2017-11-04T02:39:49.102Z,0
2017-11-04T02:40:29.468Z,0
2017-11-04T02:41:09.935Z,0
2017-11-04T02:41:50.267Z,0
2017-11-04T02:42:30.740Z,0
2017-11-04T02:43:11.140Z,0
2017-11-04T02:43:51.527Z,0
2017-11-04T02:44:31.882Z,0
2017-11-04T02:45:12.303Z,0
2017-11-04T02:45:52.723Z,0
2017-11-04T02:46:33.178Z,0
2017-11-04T02:47:13.572Z,0
2017-11-04T02:47:54.109Z,0
2017-11-04T02:48:34.355Z,0
2017-11-04T02:49:14.774Z,0
2017-11-04T02:49:55.216Z,0
2017-11-04T02:50:35.572Z,0
2017-11-04T02:51:16.028Z,0
2017-11-04T02:51:56.513Z,0
2017-11-04T02:52:36.897Z,0
2017-11-04T02:53:17.278Z,0
2017-11-04T02:53:57.726Z,0
2017-11-04T02:54:38.042Z,0
2017-11-04T02:55:18.483Z,0
2017-11-04T02:55:58.856Z,0
2017-11-04T02:56:39.287Z,0
2017-11-04T02:57:19.683Z,0
2017-11-04T02:58:00.018Z,0
2017-11-04T02:58:40.479Z,0
2017-11-04T02:59:20.852Z,0
2017-11-04T03:00:01.208Z,0
2017-11-04T03:00:41.617Z,0
2017-11-04T03:01:22.111Z,0
2017-11-04T03:02:02.507Z,0
2017-11-04T03:02:42.912Z,0
2017-11-04T03:03:23.371Z,0
2017-11-04T03:04:03.842Z,0
2017-11-04T03:04:44.310Z,0
2017-11-04T03:05:24.653Z,0
2017-11-04T03:06:05.072Z,0
2017-11-04T03:06:45.447Z,0
2017-11-04T03:07:25.854Z,0
2017-11-04T03:08:06.285Z,0
2017-11-04T03:08:46.671Z,0
2017-11-04T03:09:27.074Z,0
2017-11-04T03:10:07.443Z,0
2017-11-04T03:10:47.816Z,0
2017-11-04T03:11:28.253Z,0
2017-11-04T03:12:08.663Z,0
2017-11-04T03:12:49.011Z,0
2017-11-04T03:13:29.505Z,0
2017-11-04T03:14:09.932Z,0
2017-11-04T03:14:50.363Z,0
2017-11-04T03:15:30.748Z,0
2017-11-04T03:16:11.106Z,0
2017-11-04T03:16:51.519Z,0
2017-11-04T03:17:31.893Z,0
2017-11-04T03:18:12.404Z,0
2017-11-04T03:18:52.794Z,0
2017-11-04T03:19:33.148Z,0
2017-11-04T03:20:13.574Z,0
2017-11-04T03:20:54.021Z,0
2017-11-04T03:21:34.384Z,0
2017-11-04T03:22:14.793Z,0
2017-11-04T03:22:55.175Z,0
2017-11-04T03:23:35.663Z,0
2017-11-04T03:24:16.059Z,0
2017-11-04T03:24:56.451Z,0
2017-11-04T03:25:36.863Z,0
2017-11-04T03:26:17.244Z,0
2017-11-04T03:26:57.673Z,0
2017-11-04T03:27:38.058Z,0
2017-11-04T03:28:18.505Z,0
2017-11-04T03:28:58.919Z,0
2017-11-04T03:29:39.318Z,0
2017-11-04T03:30:19.685Z,0
2017-11-04T03:31:00.113Z,0
2017-11-04T03:31:40.579Z,0
2017-11-04T03:32:20.907Z,0
2017-11-04T03:33:01.333Z,0
2017-11-04T03:33:41.845Z,0
2017-11-04T03:34:22.229Z,0
2017-11-04T03:35:02.805Z,0
2017-11-04T03:35:43.228Z,0
2017-11-04T03:36:23.633Z,0
2017-11-04T03:37:04.032Z,0
2017-11-04T03:37:44.495Z,0
2017-11-04T03:38:24.859Z,0
2017-11-04T03:39:05.384Z,0
2017-11-04T03:39:45.846Z,0
2017-11-04T03:40:26.199Z,0
2017-11-04T03:41:06.630Z,0
2017-11-04T03:41:47.043Z,0
2017-11-04T03:42:27.399Z,0
2017-11-04T03:43:07.867Z,0
2017-11-04T03:43:48.306Z,0
2017-11-04T03:44:28.681Z,0
2017-11-04T03:45:09.115Z,0
2017-11-04T03:45:49.607Z,0
2017-11-04T03:46:30.042Z,0
2017-11-04T03:47:10.427Z,0
2017-11-04T03:47:50.808Z,0
2017-11-04T03:48:31.231Z,0
2017-11-04T03:49:11.674Z,0
2017-11-04T03:49:52.042Z,0
2017-11-04T03:50:32.505Z,0
2017-11-04T03:51:12.932Z,0
2017-11-04T03:51:53.316Z,0
2017-11-04T03:52:33.742Z,0
2017-11-04T03:53:14.185Z,0
2017-11-04T03:53:54.542Z,0
2017-11-04T03:54:34.960Z,0
2017-11-04T03:55:15.334Z,0
2017-11-04T03:55:55.749Z,0
2017-11-04T03:56:36.134Z,0
2017-11-04T03:57:16.491Z,0
2017-11-04T03:57:57.025Z,0
2017-11-04T03:58:37.441Z,0
2017-11-04T03:59:17.789Z,0
2017-11-04T03:59:58.292Z,0
2017-11-04T04:00:38.691Z,0
2017-11-04T04:01:19.162Z,0
2017-11-04T04:41:50.099Z,0
2017-11-04T04:42:40.863Z,0
2017-11-04T04:43:20.889Z,0
2017-11-04T04:44:01.245Z,0
2017-11-04T04:44:41.676Z,0
2017-11-04T04:45:22.100Z,0
2017-11-04T04:46:02.479Z,0
2017-11-04T04:46:42.852Z,0
2017-11-04T04:47:23.319Z,0
2017-11-04T04:48:03.739Z,0
2017-11-04T04:48:44.164Z,0
2017-11-04T04:49:24.615Z,0
2017-11-04T04:50:04.981Z,0
2017-11-04T04:50:45.339Z,0
2017-11-04T04:51:25.820Z,0
2017-11-04T04:52:06.233Z,0
2017-11-04T04:52:46.666Z,0
2017-11-04T04:53:27.124Z,0
2017-11-04T04:54:07.529Z,0
2017-11-04T04:54:47.859Z,0
2017-11-04T04:55:28.304Z,0
2017-11-04T04:56:08.757Z,0
2017-11-04T04:56:49.101Z,0
2017-11-04T04:57:29.525Z,0
2017-11-04T04:58:09.976Z,0
2017-11-04T04:58:50.312Z,0
2017-11-04T04:59:30.777Z,0
2017-11-04T05:00:11.160Z,0
2017-11-04T05:00:51.567Z,0
2017-11-04T05:01:32.042Z,0
2017-11-04T05:02:12.581Z,0
2017-11-04T05:02:52.923Z,0
2017-11-04T05:03:33.323Z,0
2017-11-04T05:04:13.678Z,0
2017-11-04T05:04:54.123Z,0
2017-11-04T05:05:34.567Z,0
2017-11-04T05:06:14.916Z,0
2017-11-04T05:06:55.497Z,0
2017-11-04T05:07:35.824Z,0
2017-11-04T05:08:16.296Z,0
2017-11-04T05:08:56.660Z,0
2017-11-04T05:09:37.110Z,0
2017-11-04T05:10:17.505Z,0
2017-11-04T05:10:57.891Z,0
2017-11-04T05:11:38.333Z,0
2017-11-04T05:12:18.673Z,0
2017-11-04T05:12:59.111Z,0
2017-11-04T05:13:39.499Z,0
2017-11-04T05:14:20.052Z,0
2017-11-04T05:15:00.497Z,0
2017-11-04T05:15:40.872Z,0
2017-11-04T05:16:21.279Z,0
2017-11-04T05:17:01.722Z,0
2017-11-04T05:17:42.197Z,0
2017-11-04T05:18:22.564Z,0
2017-11-04T05:19:02.898Z,0
2017-11-04T05:19:43.399Z,0
2017-11-04T05:20:23.772Z,0
2017-11-04T05:21:04.221Z,0
2017-11-04T05:21:44.600Z,0
2017-11-04T05:22:24.966Z,0
2017-11-04T05:23:05.444Z,0
2017-11-04T05:23:45.802Z,0
2017-11-04T05:24:26.311Z,0
2017-11-04T05:25:06.633Z,0
2017-11-04T05:25:47.066Z,0
2017-11-04T05:26:27.533Z,0
2017-11-04T05:27:07.848Z,0
2017-11-04T05:27:48.313Z,0
2017-11-04T05:28:28.739Z,0
2017-11-04T05:29:09.202Z,0
2017-11-04T05:29:49.535Z,0
2017-11-04T05:30:29.977Z,0
2017-11-04T05:31:10.382Z,0
2017-11-04T05:31:50.866Z,0
2017-11-04T05:32:31.197Z,0
2017-11-04T05:33:11.604Z,0
2017-11-04T05:33:52.052Z,0
2017-11-04T05:34:32.564Z,0
2017-11-04T05:35:12.915Z,0
2017-11-04T05:35:53.269Z,0
2017-11-04T05:36:33.668Z,0
2017-11-04T05:37:14.062Z,0
2017-11-04T05:37:54.483Z,0
2017-11-04T05:38:35.563Z,0
2017-11-04T05:39:15.355Z,0
2017-11-04T05:39:55.721Z,0
2017-11-04T05:40:36.085Z,0
2017-11-04T05:41:16.528Z,0
2017-11-04T05:41:57.044Z,0
2017-11-04T05:42:37.416Z,0
2017-11-04T05:43:17.773Z,0
2017-11-04T05:43:58.180Z,0
2017-11-04T05:44:38.789Z,0
2017-11-04T05:45:19.139Z,0
2017-11-04T05:45:59.574Z,0
2017-11-04T05:46:39.952Z,0
2017-11-04T05:47:20.373Z,0
2017-11-04T05:48:00.771Z,0
2017-11-04T05:48:41.198Z,0
2017-11-04T05:49:21.640Z,0
2017-11-04T05:50:02.210Z,0
2017-11-04T05:50:42.627Z,0
2017-11-04T05:51:22.977Z,0
2017-11-04T05:52:03.520Z,0
2017-11-04T05:52:43.892Z,0
2017-11-04T05:53:24.279Z,0
2017-11-04T05:54:04.833Z,0
2017-11-04T05:54:45.417Z,0
2017-11-04T05:55:25.894Z,0
2017-11-04T05:56:06.315Z,0
2017-11-04T05:56:46.667Z,0
2017-11-04T05:57:27.098Z,0
2017-11-04T05:58:07.694Z,0
2017-11-04T05:58:48.128Z,0
2017-11-04T05:59:28.489Z,0
2017-11-04T06:00:08.980Z,0
2017-11-04T06:00:49.439Z,0
2017-11-04T06:01:29.843Z,0
2017-11-04T06:02:10.249Z,0
2017-11-04T06:02:50.654Z,0
2017-11-04T06:03:31.086Z,0
2017-11-04T06:04:11.494Z,0
2017-11-04T06:04:51.842Z,0
2017-11-04T06:05:32.308Z,0
2017-11-04T06:06:12.717Z,0
2017-11-04T06:06:53.249Z,0
2017-11-04T06:07:33.770Z,0
2017-11-04T06:08:14.103Z,0
2017-11-04T06:08:54.629Z,0
2017-11-04T06:09:35.183Z,0
2017-11-04T06:10:15.601Z,0
2017-11-04T06:10:56.137Z,0
2017-11-04T06:11:36.560Z,4
2017-11-04T06:12:17.030Z,4
2017-11-04T06:12:57.400Z,4
2017-11-04T06:13:37.784Z,0
2017-11-04T06:14:18.185Z,0
2017-11-04T06:14:58.737Z,4
2017-11-04T06:15:39.063Z,4
2017-11-04T06:16:19.484Z,4
2017-11-04T06:17:00.030Z,4
2017-11-04T06:17:40.441Z,4
2017-11-04T06:18:20.897Z,8
2017-11-04T06:19:01.422Z,4
2017-11-04T06:19:41.857Z,8
2017-11-04T06:20:22.218Z,8
2017-11-04T06:21:02.671Z,12
2017-11-04T06:21:43.041Z,8
2017-11-04T06:22:23.508Z,12
2017-11-04T06:23:03.995Z,12
2017-11-04T06:23:44.477Z,16
2017-11-04T06:24:24.925Z,16
2017-11-04T06:25:05.448Z,20
2017-11-04T06:25:45.962Z,20
2017-11-04T06:26:26.379Z,20
2017-11-04T06:27:06.770Z,24
2017-11-04T06:27:47.189Z,24
2017-11-04T06:28:27.665Z,24
2017-11-04T06:29:08.042Z,28
2017-11-04T06:29:48.389Z,32
2017-11-04T06:30:28.864Z,36
2017-11-04T06:31:09.320Z,36
2017-11-04T06:31:49.781Z,36
2017-11-04T06:32:30.272Z,44
2017-11-04T06:33:10.761Z,48
2017-11-04T06:33:51.245Z,48
2017-11-04T06:34:31.704Z,52
2017-11-04T06:35:12.254Z,56
2017-11-04T06:35:52.595Z,64
2017-11-04T06:36:33.085Z,68
2017-11-04T06:37:13.481Z,72
2017-11-04T06:37:53.890Z,76
2017-11-04T06:38:34.382Z,80
2017-11-04T06:39:14.791Z,84
2017-11-04T06:39:55.233Z,96
2017-11-04T06:40:35.689Z,100
2017-11-04T06:41:16.076Z,112
2017-11-04T06:41:56.475Z,120
2017-11-04T06:42:36.826Z,132
2017-11-04T06:43:17.301Z,144
2017-11-04T06:43:57.644Z,156
2017-11-04T06:44:38.095Z,164
2017-11-04T06:45:18.517Z,180
2017-11-04T06:45:58.906Z,192
2017-11-04T06:46:39.260Z,208
2017-11-04T06:47:19.608Z,216
2017-11-04T06:48:00.046Z,228
2017-11-04T06:48:40.517Z,240
2017-11-04T06:49:20.846Z,244
2017-11-04T06:50:01.293Z,252
2017-11-04T06:50:41.690Z,256
2017-11-04T06:51:22.085Z,264
2017-11-04T06:52:02.474Z,268
2017-11-04T06:52:42.897Z,276
2017-11-04T06:53:23.284Z,288
2017-11-04T06:54:03.655Z,292
2017-11-04T06:54:44.146Z,300
2017-11-04T06:55:24.570Z,308
2017-11-04T06:56:05.629Z,316
2017-11-04T06:56:46.080Z,336
2017-11-04T06:57:26.603Z,344
2017-11-04T06:58:06.996Z,348
2017-11-04T06:58:47.406Z,352
2017-11-04T06:59:27.737Z,360
2017-11-04T07:00:08.108Z,368
2017-11-04T07:00:48.618Z,376
2017-11-04T07:01:29.099Z,384
2017-11-04T07:02:09.592Z,388
2017-11-04T07:02:49.982Z,396
2017-11-04T07:03:30.459Z,396
2017-11-04T07:04:10.899Z,400
2017-11-04T07:04:51.301Z,400
2017-11-04T07:05:31.663Z,404
2017-11-04T07:06:12.101Z,412
2017-11-04T07:06:52.443Z,420
2017-11-04T07:07:32.893Z,428
2017-11-04T07:08:13.397Z,436
2017-11-04T07:08:53.791Z,440
2017-11-04T07:09:34.266Z,452
2017-11-04T07:10:14.670Z,456
2017-11-04T07:10:55.105Z,464
2017-11-04T07:11:35.612Z,472
2017-11-04T07:12:16.031Z,484
2017-11-04T07:12:56.434Z,488
2017-11-04T07:13:36.829Z,492
2017-11-04T07:14:17.240Z,500
2017-11-04T07:14:57.833Z,512
2017-11-04T07:15:38.270Z,516
2017-11-04T07:16:18.718Z,520
2017-11-04T07:16:59.067Z,528
2017-11-04T07:17:39.650Z,540
2017-11-04T07:18:20.095Z,556
2017-11-04T07:19:00.520Z,572
2017-11-04T07:19:40.892Z,580
2017-11-04T07:20:21.325Z,592
2017-11-04T07:21:01.668Z,600
2017-11-04T07:21:42.056Z,604
2017-11-04T07:22:22.491Z,608
2017-11-04T07:23:02.921Z,604
2017-11-04T07:23:43.280Z,608
2017-11-04T07:24:23.884Z,612
2017-11-04T07:25:04.220Z,616
2017-11-04T07:25:44.655Z,620
2017-11-04T07:26:25.118Z,612
2017-11-04T07:27:05.580Z,600
2017-11-04T07:27:45.978Z,592
2017-11-04T07:28:26.373Z,588
2017-11-04T07:29:06.815Z,584
2017-11-04T07:29:47.206Z,600
2017-11-04T07:30:27.654Z,616
2017-11-04T07:31:08.100Z,620
2017-11-04T07:31:48.531Z,600
2017-11-04T07:32:28.973Z,620
2017-11-04T07:33:09.404Z,652
2017-11-04T07:33:49.856Z,720
2017-11-04T07:34:30.233Z,724
2017-11-04T07:35:10.581Z,688
2017-11-04T07:35:50.989Z,660
2017-11-04T07:36:31.406Z,648
2017-11-04T07:37:11.832Z,644
2017-11-04T07:37:52.190Z,652
2017-11-04T07:38:32.662Z,664
2017-11-04T07:39:13.098Z,684
2017-11-04T07:39:53.519Z,744
2017-11-04T07:40:33.856Z,816
2017-11-04T07:41:14.232Z,792
2017-11-04T07:41:54.636Z,784
2017-11-04T07:42:35.785Z,920
2017-11-04T07:43:16.340Z,1120
2017-11-04T07:43:57.022Z,1300
2017-11-04T07:44:37.537Z,1420
2017-11-04T07:45:17.918Z,1468
2017-11-04T07:45:58.389Z,1488
2017-11-04T07:46:38.782Z,1500
2017-11-04T07:47:19.412Z,1508
2017-11-04T07:47:59.854Z,1492
2017-11-04T07:48:40.239Z,1500
2017-11-04T07:49:20.803Z,1508
2017-11-04T07:50:01.159Z,1496
2017-11-04T07:50:41.606Z,1508
2017-11-04T07:51:22.116Z,1544
2017-11-04T07:52:02.606Z,1552
2017-11-04T07:52:43.034Z,1508
2017-11-04T07:53:23.522Z,1472
2017-11-04T07:54:03.867Z,1436
2017-11-04T07:54:44.374Z,1392
2017-11-04T07:55:24.919Z,1404
2017-11-04T07:56:05.378Z,1468
2017-11-04T07:56:45.749Z,1512
2017-11-04T07:57:26.195Z,1520
2017-11-04T07:58:06.706Z,1560
2017-11-04T07:58:47.051Z,1564
2017-11-04T07:59:27.507Z,1600
2017-11-04T08:00:07.973Z,1636
2017-11-04T08:00:48.304Z,1648
2017-11-04T08:01:28.706Z,1560
2017-11-04T08:02:09.153Z,1596
2017-11-04T08:02:50.154Z,1604
2017-11-04T08:03:34.037Z,1584
2017-11-04T08:04:13.536Z,1536
2017-11-04T08:04:53.959Z,1480
2017-11-04T08:05:34.319Z,1452
2017-11-04T08:06:14.700Z,1464
2017-11-04T08:06:55.195Z,1532
2017-11-04T08:07:35.769Z,1532
2017-11-04T08:08:16.130Z,1524
2017-11-04T08:08:56.525Z,1620
2017-11-04T08:09:37.001Z,1676
2017-11-04T08:10:17.459Z,1720
2017-11-04T08:10:57.836Z,1736
2017-11-04T08:11:38.227Z,1748
2017-11-04T08:12:18.634Z,1756
2017-11-04T08:12:59.016Z,1752
2017-11-04T08:13:39.510Z,1756
2017-11-04T08:14:19.929Z,1756
2017-11-04T08:15:00.245Z,1772
2017-11-04T08:15:40.771Z,1788
2017-11-04T08:16:21.189Z,1808
2017-11-04T08:17:01.635Z,1816
2017-11-04T08:17:42.061Z,1820
2017-11-04T08:18:22.499Z,1828
2017-11-04T08:19:03.023Z,1836
2017-11-04T08:19:43.450Z,1844
2017-11-04T08:20:23.868Z,1840
2017-11-04T08:21:04.276Z,1840
2017-11-04T08:21:44.713Z,1840
2017-11-04T08:22:25.051Z,1828
2017-11-04T08:23:05.456Z,1816
2017-11-04T08:23:45.926Z,1792
2017-11-04T08:24:26.400Z,1772
2017-11-04T08:25:06.826Z,1800
2017-11-04T08:25:47.221Z,1672
2017-11-04T08:26:27.542Z,1732
2017-11-04T08:27:08.023Z,1780
2017-11-04T08:27:48.398Z,1764
2017-11-04T08:28:28.829Z,1712
2017-11-04T08:29:09.300Z,1732
2017-11-04T08:29:49.803Z,1732
2017-11-04T08:30:30.259Z,1720
2017-11-04T08:31:10.638Z,1688
2017-11-04T08:31:51.109Z,1672
2017-11-04T08:32:31.547Z,1664
2017-11-04T08:33:11.879Z,1672
2017-11-04T08:33:52.341Z,1688
2017-11-04T08:34:32.820Z,1696
2017-11-04T08:35:13.192Z,1696
2017-11-04T08:35:53.647Z,1696
2017-11-04T08:36:34.049Z,1692
2017-11-04T08:37:14.494Z,1672
2017-11-04T08:37:54.980Z,1636
2017-11-04T08:38:35.335Z,1664
2017-11-04T08:39:15.786Z,1672
2017-11-04T08:39:56.100Z,1672
2017-11-04T08:40:36.568Z,1660
2017-11-04T08:41:16.989Z,1576
2017-11-04T08:41:57.472Z,1624
2017-11-04T08:42:37.856Z,1644
2017-11-04T08:43:18.289Z,1648
2017-11-04T08:43:58.673Z,1648
2017-11-04T08:44:39.069Z,1640
2017-11-04T08:45:19.619Z,1640
2017-11-04T08:46:00.117Z,1652
2017-11-04T08:46:40.619Z,1652
2017-11-04T08:47:21.183Z,1652
2017-11-04T08:48:01.744Z,1656
2017-11-04T08:48:42.279Z,1688
2017-11-04T08:49:22.631Z,1712
2017-11-04T08:50:03.046Z,1680
2017-11-04T08:50:43.474Z,1660
2017-11-04T08:51:24.083Z,1652
2017-11-04T08:52:04.550Z,1652
2017-11-04T08:52:44.994Z,1660
2017-11-04T08:53:28.539Z,1640
2017-11-04T08:54:09.019Z,1640
2017-11-04T08:54:49.377Z,1632
2017-11-04T08:55:39.358Z,1596
2017-11-04T08:56:23.730Z,1616
2017-11-04T08:57:04.090Z,1580
2017-11-04T08:57:44.460Z,1660
2017-11-04T08:58:24.838Z,1700
2017-11-04T08:59:05.325Z,1680
2017-11-04T08:59:45.729Z,1664
2017-11-04T09:00:26.091Z,1608
2017-11-04T09:01:06.560Z,1516
2017-11-04T09:01:46.946Z,1592
2017-11-04T09:02:27.366Z,1604
2017-11-04T09:03:07.837Z,1636
2017-11-04T09:03:48.185Z,1624
2017-11-04T09:04:28.550Z,1568
2017-11-04T09:05:09.002Z,1564
2017-11-04T09:05:49.467Z,1580
2017-11-04T09:06:30.085Z,1588
2017-11-04T09:07:10.552Z,1636
2017-11-04T09:07:50.946Z,1752
2017-11-04T09:08:31.366Z,1988
2017-11-04T09:09:11.786Z,1932
2017-11-04T09:09:52.326Z,1864
2017-11-04T09:10:32.736Z,1664
2017-11-04T09:11:13.120Z,1616
2017-11-04T09:11:53.532Z,1624
2017-11-04T09:12:34.013Z,1860
2017-11-04T09:13:14.397Z,1624
2017-11-04T09:13:54.864Z,1556
2017-11-04T09:14:35.262Z,1492
2017-11-04T09:15:15.731Z,1436
2017-11-04T09:15:56.301Z,1352
2017-11-04T09:16:36.734Z,1292
2017-11-04T09:17:17.113Z,1248
2017-11-04T09:17:57.601Z,1240
2017-11-04T09:18:38.107Z,1252
2017-11-04T09:19:18.541Z,1216
2017-11-04T09:19:58.974Z,1628
2017-11-04T09:20:39.496Z,1700
2017-11-04T09:21:19.988Z,1708
2017-11-04T09:22:00.490Z,1744
2017-11-04T09:22:40.991Z,1768
2017-11-04T09:23:21.505Z,1796
2017-11-04T09:24:01.940Z,1780
2017-11-04T09:24:42.319Z,1768
2017-11-04T09:25:22.778Z,1732
2017-11-04T09:26:03.245Z,1692
2017-11-04T09:26:43.699Z,1688
2017-11-04T09:27:24.092Z,1696
2017-11-04T09:28:04.589Z,1732
2017-11-04T09:28:45.015Z,1744
2017-11-04T09:29:25.397Z,1760
2017-11-04T09:30:05.816Z,1780
2017-11-04T09:30:46.253Z,1860
2017-11-04T09:31:26.571Z,1956
2017-11-04T09:32:07.139Z,2028
2017-11-04T09:32:47.699Z,2084
2017-11-04T09:33:28.100Z,2108
2017-11-04T09:34:08.502Z,2104
2017-11-04T09:34:48.950Z,2088
2017-11-04T09:35:29.304Z,2052
2017-11-04T09:36:09.771Z,2016
2017-11-04T09:36:50.174Z,1992
2017-11-04T09:37:30.728Z,1972
2017-11-04T09:38:11.161Z,1972
2017-11-04T09:38:51.535Z,1928
2017-11-04T09:39:31.948Z,1748
2017-11-04T09:40:12.471Z,1532
2017-11-04T09:40:53.093Z,1724
2017-11-04T09:41:33.380Z,1364
2017-11-04T09:42:13.716Z,1288
2017-11-04T09:42:54.203Z,1244
2017-11-04T09:43:34.665Z,1116
2017-11-04T09:44:15.149Z,1036
2017-11-04T09:44:55.532Z,992
2017-11-04T09:45:36.039Z,968
2017-11-04T09:46:16.436Z,1000
2017-11-04T09:46:56.795Z,1036
2017-11-04T09:47:37.183Z,1016
2017-11-04T09:48:17.773Z,1024
2017-11-04T09:48:58.336Z,928
2017-11-04T09:49:38.687Z,1020
2017-11-04T09:50:19.214Z,968
2017-11-04T09:50:59.641Z,996
2017-11-04T09:51:40.033Z,1048
2017-11-04T09:52:20.475Z,1060
2017-11-04T09:53:01.342Z,1076
2017-11-04T09:53:41.786Z,1176
2017-11-04T09:54:22.135Z,1284
2017-11-04T09:55:02.682Z,1208
2017-11-04T09:55:43.126Z,1200
2017-11-04T09:56:23.628Z,1216
2017-11-04T09:57:03.953Z,1200
2017-11-04T09:57:44.333Z,1220
2017-11-04T09:58:24.744Z,1288
2017-11-04T09:59:05.177Z,1300
2017-11-04T09:59:45.575Z,1460
2017-11-04T10:00:25.982Z,1396
2017-11-04T10:01:06.398Z,1552
2017-11-04T10:01:46.789Z,1620
2017-11-04T10:02:27.189Z,1676
2017-11-04T10:03:07.616Z,1664
2017-11-04T10:43:14.604Z,928
2017-11-04T10:43:54.926Z,940
2017-11-04T10:44:35.294Z,960
2017-11-04T10:45:15.619Z,996
2017-11-04T10:45:56.084Z,1028
2017-11-04T10:46:36.508Z,1032
2017-11-04T10:47:16.992Z,1044
2017-11-04T10:47:57.230Z,1076
2017-11-04T10:48:37.668Z,1144
2017-11-04T10:49:18.125Z,1120
2017-11-04T10:49:58.674Z,1120
2017-11-04T10:50:39.009Z,1024
2017-11-04T10:51:19.386Z,1012
2017-11-04T10:51:59.798Z,1040
2017-11-04T10:52:40.291Z,1064
2017-11-04T10:53:20.718Z,1076
2017-11-04T10:54:01.063Z,1080
2017-11-04T10:54:41.458Z,1060
2017-11-04T10:55:21.948Z,1024
2017-11-04T10:56:02.417Z,996
2017-11-04T10:56:42.817Z,984
2017-11-04T10:57:23.131Z,988